createdAt,value
2023-01-25T00:01:56.176Z,2.70
2023-01-25T00:04:26.995Z,2.70
2023-01-25T00:06:57.916Z,2.60
2023-01-25T00:09:29.445Z,2.60
2023-01-25T00:11:59.959Z,2.60
2023-01-25T00:14:30.560Z,2.70
2023-01-25T00:17:03.250Z,2.70
2023-01-25T00:19:33.538Z,2.70
2023-01-25T00:22:03.735Z,2.80
2023-01-25T00:24:33.821Z,2.90
2023-01-25T00:27:04.896Z,2.90
2023-01-25T00:29:35.238Z,2.90
2023-01-25T00:32:44.220Z,3.00
2023-01-25T00:35:15.588Z,3.10
2023-01-25T00:37:50.642Z,3.10
2023-01-25T00:40:21.624Z,3.20
2023-01-25T00:42:51.717Z,3.20
2023-01-25T00:45:23.005Z,3.00
2023-01-25T00:47:58.631Z,2.90
2023-01-25T00:50:28.839Z,2.90
2023-01-25T00:53:00.448Z,3.00
2023-01-25T00:55:30.702Z,2.80
2023-01-25T00:58:00.923Z,2.80
2023-01-25T01:00:31.047Z,2.90
2023-01-25T01:03:04.004Z,2.90
2023-01-25T01:05:36.238Z,3.00
2023-01-25T01:08:07.068Z,3.10
2023-01-25T01:10:37.117Z,3.10
2023-01-25T01:13:07.437Z,3.10
2023-01-25T01:15:40.133Z,3.00
2023-01-25T01:18:12.728Z,2.80
2023-01-25T01:20:42.746Z,2.90
2023-01-25T01:23:12.818Z,3.00
2023-01-25T01:25:42.874Z,3.10
2023-01-25T01:28:13.198Z,3.20
2023-01-25T01:30:43.530Z,3.20
2023-01-25T01:33:16.678Z,3.20
2023-01-25T01:35:46.970Z,3.10
2023-01-25T01:38:17.055Z,3.10
2023-01-25T01:40:48.731Z,3.00
2023-01-25T01:43:22.874Z,2.90
2023-01-25T01:45:58.390Z,3.00
2023-01-25T01:48:44.094Z,2.90
2023-01-25T01:51:22.184Z,3.00
2023-01-25T01:53:58.551Z,3.00
2023-01-25T01:56:37.233Z,3.20
2023-01-25T01:59:09.873Z,3.10
2023-01-25T02:01:40.895Z,3.00
2023-01-25T02:04:16.974Z,2.90
2023-01-25T02:06:53.395Z,2.90
2023-01-25T02:09:28.863Z,3.10
2023-01-25T02:12:01.184Z,3.20
2023-01-25T02:14:34.222Z,3.30
2023-01-25T02:17:06.171Z,3.30
2023-01-25T02:19:53.441Z,3.20
2023-01-25T02:22:33.865Z,3.20
2023-01-25T02:25:11.122Z,3.20
2023-01-25T02:27:47.370Z,3.20
2023-01-25T02:30:18.372Z,3.20
2023-01-25T02:32:48.550Z,3.10
2023-01-25T02:35:24.915Z,3.00
2023-01-25T02:37:55.336Z,3.00
2023-01-25T02:40:27.977Z,2.90
2023-01-25T02:42:58.117Z,2.90
2023-01-25T02:45:33.012Z,2.80
2023-01-25T02:48:03.006Z,2.80
2023-01-25T02:50:33.193Z,2.80
2023-01-25T02:53:03.174Z,2.80
2023-01-25T02:55:36.068Z,2.80
2023-01-25T02:58:06.308Z,2.80
2023-01-25T03:00:36.556Z,2.90
2023-01-25T03:03:07.112Z,3.10
2023-01-25T03:05:37.741Z,3.10
2023-01-25T03:08:08.075Z,3.10
2023-01-25T03:10:40.737Z,3.00
2023-01-25T03:13:11.381Z,2.90
2023-01-25T03:15:41.914Z,2.90
2023-01-25T03:18:11.996Z,3.00
2023-01-25T03:20:42.033Z,2.90
2023-01-25T03:23:12.267Z,2.90
2023-01-25T03:25:44.955Z,2.90
2023-01-25T03:28:19.621Z,3.00
2023-01-25T03:30:56.198Z,3.20
2023-01-25T03:33:26.433Z,3.20
2023-01-25T03:35:57.740Z,3.20
2023-01-25T03:38:29.634Z,3.10
2023-01-25T03:41:04.655Z,3.20
2023-01-25T03:43:35.965Z,3.30
2023-01-25T03:46:06.889Z,3.10
2023-01-25T03:48:37.902Z,3.20
2023-01-25T03:51:09.015Z,3.20
2023-01-25T03:53:39.868Z,3.10
2023-01-25T03:56:20.602Z,3.00
2023-01-25T03:59:04.286Z,3.00
2023-01-25T04:01:36.232Z,3.10
2023-01-25T04:04:07.081Z,3.10
2023-01-25T04:06:38.108Z,3.10
2023-01-25T04:09:08.988Z,3.10
2023-01-25T04:11:45.880Z,3.10
2023-01-25T04:14:16.849Z,2.90
2023-01-25T04:16:59.864Z,3.00
2023-01-25T04:19:40.486Z,2.90
2023-01-25T04:22:14.407Z,2.80
2023-01-25T04:24:44.831Z,2.90
2023-01-25T04:27:18.583Z,2.70
2023-01-25T04:29:58.778Z,2.60
2023-01-25T04:32:30.411Z,2.60
2023-01-25T04:35:02.032Z,2.50
2023-01-25T04:37:33.271Z,2.50
2023-01-25T04:40:04.248Z,2.50
2023-01-25T04:42:41.823Z,2.50
2023-01-25T04:45:13.807Z,2.70
2023-01-25T04:47:44.385Z,2.70
2023-01-25T04:50:15.204Z,2.60
2023-01-25T04:52:45.491Z,2.70
2023-01-25T04:55:15.708Z,2.80
2023-01-25T04:57:52.871Z,2.80
2023-01-25T05:00:23.944Z,2.90
2023-01-25T05:02:54.343Z,3.00
2023-01-25T05:05:25.524Z,3.10
2023-01-25T05:07:57.737Z,2.90
2023-01-25T05:10:27.859Z,2.90
2023-01-25T05:13:32.862Z,2.90
2023-01-25T05:16:12.976Z,2.90
2023-01-25T05:18:48.829Z,2.90
2023-01-25T05:21:36.551Z,2.90
2023-01-25T05:24:07.966Z,3.00
2023-01-25T05:26:50.973Z,2.90
2023-01-25T05:29:23.685Z,2.90
2023-01-25T05:32:02.881Z,2.90
2023-01-25T05:34:33.456Z,2.80
2023-01-25T05:37:04.936Z,2.70
2023-01-25T05:39:35.272Z,2.60
2023-01-25T05:42:06.619Z,2.60
2023-01-25T05:44:39.688Z,2.60
2023-01-25T05:47:16.017Z,2.60
2023-01-25T05:49:47.085Z,2.70
2023-01-25T05:52:32.053Z,2.80
2023-01-25T05:55:02.836Z,2.80
2023-01-25T05:57:33.700Z,2.90
2023-01-25T06:00:09.796Z,2.80
2023-01-25T06:02:43.813Z,2.80
2023-01-25T06:05:19.307Z,2.70
2023-01-25T06:07:49.443Z,2.60
2023-01-25T06:10:21.276Z,2.70
2023-01-25T06:12:53.438Z,2.60
2023-01-25T06:15:26.280Z,2.70
2023-01-25T06:17:59.163Z,2.60
2023-01-25T06:20:43.244Z,2.60
2023-01-25T06:23:13.368Z,2.70
2023-01-25T06:25:43.617Z,2.90
2023-01-25T06:28:14.323Z,3.00
2023-01-25T06:30:47.000Z,3.00
2023-01-25T06:33:17.227Z,3.20
2023-01-25T06:35:47.582Z,3.30
2023-01-25T06:38:17.820Z,3.30
2023-01-25T06:40:48.001Z,3.30
2023-01-25T06:43:18.097Z,3.20
2023-01-25T06:45:50.922Z,3.30
2023-01-25T06:48:21.782Z,3.30
2023-01-25T06:50:58.156Z,3.30
2023-01-25T06:53:30.217Z,3.30
2023-01-25T06:56:02.709Z,3.40
2023-01-25T06:58:34.506Z,3.50
2023-01-25T07:01:11.637Z,3.50
2023-01-25T07:03:42.101Z,3.50
2023-01-25T07:06:14.601Z,3.60
2023-01-25T07:08:44.632Z,3.60
2023-01-25T07:11:16.701Z,3.40
2023-01-25T07:13:49.294Z,3.40
2023-01-25T07:16:23.445Z,3.50
2023-01-25T07:18:53.614Z,3.50
2023-01-25T07:21:26.504Z,3.50
2023-01-25T07:23:57.300Z,3.50
2023-01-25T07:26:29.216Z,3.60
2023-01-25T07:29:02.207Z,3.60
2023-01-25T07:31:35.365Z,3.70
2023-01-25T07:34:05.861Z,3.60
2023-01-25T07:36:36.290Z,3.30
2023-01-25T07:39:06.882Z,3.40
2023-01-25T07:41:37.029Z,3.40
2023-01-25T07:44:07.342Z,3.40
2023-01-25T07:46:44.687Z,3.40
2023-01-25T07:49:15.149Z,3.40
2023-01-25T07:51:45.163Z,3.30
2023-01-25T07:54:15.731Z,3.30
2023-01-25T07:56:45.872Z,3.30
2023-01-25T07:59:16.368Z,3.30
2023-01-25T08:01:49.246Z,3.20
2023-01-25T08:04:19.351Z,3.30
2023-01-25T08:06:49.575Z,3.30
2023-01-25T08:09:21.335Z,3.40
2023-01-25T08:11:53.651Z,3.40
2023-01-25T08:14:24.902Z,3.40
2023-01-25T08:16:57.742Z,3.20
2023-01-25T08:19:28.339Z,3.20
2023-01-25T08:21:58.406Z,3.10
2023-01-25T08:24:28.582Z,3.10
2023-01-25T08:26:58.691Z,3.20
2023-01-25T08:29:28.991Z,3.20
2023-01-25T08:32:04.527Z,3.30
2023-01-25T08:34:34.893Z,3.40
2023-01-25T08:37:05.332Z,3.40
2023-01-25T08:39:35.480Z,3.40
2023-01-25T08:42:06.351Z,3.40
2023-01-25T08:44:36.397Z,3.30
2023-01-25T08:47:09.000Z,3.30
2023-01-25T08:49:39.257Z,3.30
2023-01-25T08:52:10.096Z,3.20
2023-01-25T08:54:43.035Z,3.20
2023-01-25T08:57:15.114Z,3.20
2023-01-25T08:59:45.240Z,3.30
2023-01-25T09:02:19.582Z,3.40
2023-01-25T09:04:50.096Z,3.50
2023-01-25T09:07:20.402Z,3.60
2023-01-25T09:09:51.373Z,3.50
2023-01-25T09:12:21.546Z,3.40
2023-01-25T09:14:52.148Z,3.50
2023-01-25T09:17:25.575Z,3.50
2023-01-25T09:19:55.747Z,3.50
2023-01-25T09:22:25.886Z,3.40
2023-01-25T09:24:56.693Z,3.40
2023-01-25T09:27:27.226Z,3.30
2023-01-25T09:30:02.100Z,3.30
2023-01-25T09:32:36.252Z,3.20
2023-01-25T09:35:07.749Z,3.10
2023-01-25T09:37:39.044Z,3.10
2023-01-25T09:40:21.427Z,3.20
2023-01-25T09:43:04.364Z,3.30
2023-01-25T09:45:37.383Z,3.30
2023-01-25T09:49:06.337Z,3.40
2023-01-25T09:52:00.668Z,3.70
2023-01-25T09:54:42.320Z,3.70
2023-01-25T09:57:24.451Z,3.70
2023-01-25T09:59:57.125Z,3.50
2023-01-25T10:02:44.054Z,3.70
2023-01-25T10:05:25.916Z,3.70
2023-01-25T10:08:07.236Z,3.60
2023-01-25T10:10:42.572Z,3.60
2023-01-25T10:13:16.415Z,3.50
2023-01-25T10:15:53.625Z,3.50
2023-01-25T10:18:36.556Z,3.50
2023-01-25T10:21:21.643Z,3.50
2023-01-25T10:24:31.262Z,3.60
2023-01-25T10:27:19.775Z,3.80
2023-01-25T10:29:52.455Z,4.00
2023-01-25T10:32:28.737Z,4.20
2023-01-25T10:35:04.286Z,4.30
2023-01-25T10:37:39.032Z,4.30
2023-01-25T10:40:22.657Z,4.30
2023-01-25T10:43:00.036Z,4.20
2023-01-25T10:45:30.446Z,4.30
2023-01-25T10:48:10.181Z,4.30
2023-01-25T10:50:53.666Z,4.50
2023-01-25T10:53:36.918Z,4.60
2023-01-25T10:56:31.272Z,4.50
2023-01-25T10:59:21.652Z,4.40
2023-01-25T11:01:52.213Z,4.20
2023-01-25T11:04:39.929Z,4.20
2023-01-25T11:07:31.557Z,4.20
2023-01-25T11:10:04.604Z,4.30
2023-01-25T11:12:34.806Z,4.40
2023-01-25T11:15:28.920Z,4.40
2023-01-25T11:18:09.743Z,4.40
2023-01-25T11:20:40.029Z,4.30
2023-01-25T11:23:27.175Z,4.00
2023-01-25T11:26:16.773Z,3.90
2023-01-25T11:28:49.184Z,4.00
2023-01-25T11:31:23.304Z,4.00
2023-01-25T11:33:53.897Z,3.90
2023-01-25T11:36:36.408Z,4.00
2023-01-25T11:39:24.980Z,3.80
2023-01-25T11:42:15.654Z,3.70
2023-01-25T11:45:37.429Z,3.70
2023-01-25T11:48:31.593Z,3.60
2023-01-25T11:51:10.133Z,3.60
2023-01-25T11:54:03.906Z,3.70
2023-01-25T11:56:53.712Z,3.70
2023-01-25T11:59:53.401Z,3.60
2023-01-25T12:03:01.898Z,3.60
2023-01-25T12:05:51.369Z,3.60
2023-01-25T12:08:44.753Z,3.60
2023-01-25T12:11:36.053Z,3.50
2023-01-25T12:14:23.034Z,3.30
2023-01-25T12:17:35.622Z,3.30
2023-01-25T12:20:34.461Z,3.20
2023-01-25T12:23:34.158Z,3.10
2023-01-25T12:26:27.869Z,3.20
2023-01-25T12:29:13.416Z,3.30
2023-01-25T12:31:52.312Z,3.40
2023-01-25T12:34:36.091Z,3.30
2023-01-25T12:37:17.233Z,3.30
2023-01-25T12:39:55.301Z,3.30
2023-01-25T12:42:35.415Z,3.30
2023-01-25T12:45:17.106Z,3.20
2023-01-25T12:47:54.940Z,3.10
2023-01-25T12:50:36.266Z,3.10
2023-01-25T12:53:20.699Z,3.20
2023-01-25T12:55:52.769Z,3.20
2023-01-25T12:58:37.836Z,3.40
2023-01-25T13:01:22.649Z,3.30
2023-01-25T13:04:12.544Z,3.20
2023-01-25T13:06:55.514Z,3.40
2023-01-25T13:09:36.727Z,3.50
2023-01-25T13:12:08.689Z,3.80
2023-01-25T13:14:41.530Z,4.00
2023-01-25T13:17:25.447Z,4.10
2023-01-25T13:19:56.476Z,4.10
2023-01-25T13:23:02.285Z,4.20
2023-01-25T13:25:32.815Z,4.00
2023-01-25T13:28:43.597Z,3.90
2023-01-25T13:31:52.481Z,3.60
2023-01-25T13:35:00.627Z,3.60
2023-01-25T13:37:33.093Z,3.70
2023-01-25T13:40:27.039Z,3.60
2023-01-25T13:43:05.247Z,3.50
2023-01-25T13:45:42.429Z,3.40
2023-01-25T13:48:21.844Z,3.50
2023-01-25T13:50:57.820Z,3.50
2023-01-25T13:53:36.001Z,3.50
2023-01-25T13:56:36.215Z,3.50
2023-01-25T13:59:06.823Z,3.40
2023-01-25T14:01:39.781Z,3.40
2023-01-25T14:04:10.497Z,3.50
2023-01-25T14:06:43.315Z,3.50
2023-01-25T14:09:20.748Z,3.50
2023-01-25T14:12:00.481Z,3.60
2023-01-25T14:14:36.139Z,3.40
2023-01-25T14:17:21.168Z,3.40
2023-01-25T14:19:57.800Z,3.30
2023-01-25T14:22:30.453Z,3.40
2023-01-25T14:25:17.105Z,3.30
2023-01-25T14:27:54.022Z,3.30
2023-01-25T14:30:27.780Z,3.30
2023-01-25T14:33:03.487Z,3.30
2023-01-25T14:35:42.850Z,3.30
2023-01-25T14:38:32.183Z,3.40
2023-01-25T14:41:14.082Z,3.40
2023-01-25T14:43:53.541Z,3.30
2023-01-25T14:46:46.980Z,3.40
2023-01-25T14:49:28.715Z,3.50
2023-01-25T14:52:06.566Z,3.40
2023-01-25T14:54:40.652Z,3.30
2023-01-25T14:57:39.379Z,3.20
2023-01-25T15:00:27.770Z,3.10
2023-01-25T15:03:01.695Z,2.90
2023-01-25T15:05:35.089Z,2.70
2023-01-25T15:08:19.227Z,2.60
2023-01-25T15:10:58.435Z,2.50
2023-01-25T15:13:30.858Z,2.50
2023-01-25T15:16:06.425Z,2.40
2023-01-25T15:18:51.360Z,2.30
2023-01-25T15:21:26.988Z,2.60
2023-01-25T15:24:05.109Z,2.60
2023-01-25T15:26:38.616Z,2.70
2023-01-25T15:29:17.412Z,2.70
2023-01-25T15:31:53.552Z,2.70
2023-01-25T15:34:30.467Z,2.70
2023-01-25T15:37:00.924Z,2.70
2023-01-25T15:39:32.739Z,2.80
2023-01-25T15:42:03.205Z,2.80
2023-01-25T15:44:33.528Z,2.90
2023-01-25T15:47:06.640Z,3.00
2023-01-25T15:49:39.712Z,3.20
2023-01-25T15:52:12.842Z,3.30
2023-01-25T15:54:51.792Z,3.30
2023-01-25T15:57:31.416Z,3.40
2023-01-25T16:00:02.794Z,3.40
2023-01-25T16:02:37.376Z,3.30
2023-01-25T16:05:08.644Z,3.30
2023-01-25T16:07:42.904Z,3.30
2023-01-25T16:10:24.562Z,3.20
2023-01-25T16:12:54.863Z,3.20
2023-01-25T16:15:25.140Z,3.30
2023-01-25T16:17:58.198Z,3.30
2023-01-25T16:20:28.547Z,3.30
2023-01-25T16:22:58.713Z,3.20
2023-01-25T16:25:29.140Z,3.30
2023-01-25T16:27:59.676Z,3.10
2023-01-25T16:30:33.017Z,3.20
2023-01-25T16:33:06.240Z,3.30
2023-01-25T16:35:36.826Z,3.20
2023-01-25T16:38:07.068Z,3.20
2023-01-25T16:40:39.939Z,3.10
2023-01-25T16:43:11.829Z,3.00
2023-01-25T16:45:44.831Z,2.90
2023-01-25T16:48:18.702Z,3.00
2023-01-25T16:50:53.652Z,3.00
2023-01-25T16:53:24.221Z,2.90
2023-01-25T16:55:54.632Z,3.00
2023-01-25T16:58:25.128Z,3.00
2023-01-25T17:00:55.468Z,3.10
2023-01-25T17:03:29.467Z,3.10
2023-01-25T17:06:01.014Z,3.30
2023-01-25T17:08:31.347Z,3.20
2023-01-25T17:11:10.694Z,3.20
2023-01-25T17:13:41.349Z,3.30
2023-01-25T17:16:11.840Z,3.30
2023-01-25T17:18:57.853Z,3.20
2023-01-25T17:21:30.213Z,3.30
2023-01-25T17:24:03.513Z,3.40
2023-01-25T17:26:35.844Z,3.20
2023-01-25T17:29:06.195Z,3.10
2023-01-25T17:31:44.459Z,3.10
2023-01-25T17:34:22.411Z,3.10
2023-01-25T17:36:54.463Z,3.00
2023-01-25T17:39:24.980Z,3.00
2023-01-25T17:41:55.740Z,2.90
2023-01-25T17:44:27.087Z,2.80
2023-01-25T17:46:57.411Z,2.80
2023-01-25T17:49:30.991Z,2.80
2023-01-25T17:52:02.455Z,2.70
2023-01-25T17:54:32.745Z,2.80
2023-01-25T17:57:03.105Z,2.70
2023-01-25T17:59:34.066Z,2.50
2023-01-25T18:02:05.881Z,2.50
2023-01-25T18:04:41.325Z,2.50
2023-01-25T18:07:11.536Z,2.50
2023-01-25T18:09:41.874Z,2.50
2023-01-25T18:12:13.167Z,2.60
2023-01-25T18:14:45.564Z,2.70
2023-01-25T18:17:16.072Z,2.80
2023-01-25T18:19:49.239Z,2.80
2023-01-25T18:22:20.089Z,2.80
2023-01-25T18:24:50.651Z,2.90
2023-01-25T18:27:24.793Z,2.90
2023-01-25T18:30:03.624Z,3.00
2023-01-25T18:32:35.324Z,3.00
2023-01-25T18:35:09.679Z,2.70
2023-01-25T18:37:43.604Z,2.60
2023-01-25T18:40:18.874Z,2.40
2023-01-25T18:42:49.475Z,2.40
2023-01-25T18:45:20.300Z,2.50
2023-01-25T18:47:50.594Z,2.60
2023-01-25T18:50:24.081Z,2.60
2023-01-25T18:52:55.801Z,2.60
2023-01-25T18:55:27.817Z,2.60
2023-01-25T18:58:04.062Z,2.60
2023-01-25T19:00:34.588Z,2.60
2023-01-25T19:03:04.739Z,2.60
2023-01-25T19:05:38.086Z,2.70
2023-01-25T19:08:08.837Z,2.80
2023-01-25T19:10:39.265Z,2.80
2023-01-25T19:13:09.865Z,2.90
2023-01-25T19:15:41.328Z,3.00
2023-01-25T19:18:11.913Z,3.00
2023-01-25T19:20:45.430Z,2.90
2023-01-25T19:23:15.695Z,2.70
2023-01-25T19:25:45.759Z,2.70
2023-01-25T19:28:15.967Z,2.60
2023-01-25T19:30:46.151Z,2.50
2023-01-25T19:33:16.740Z,2.50
2023-01-25T19:35:49.841Z,2.60
2023-01-25T19:38:20.041Z,2.60
2023-01-25T19:40:50.452Z,2.60
2023-01-25T19:43:20.763Z,2.50
2023-01-25T19:45:51.066Z,2.50
2023-01-25T19:48:21.339Z,2.60
2023-01-25T19:50:54.129Z,2.50
2023-01-25T19:53:24.493Z,2.40
2023-01-25T19:55:54.703Z,2.40
2023-01-25T19:58:29.523Z,2.40
2023-01-25T20:01:07.508Z,2.30
2023-01-25T20:03:38.308Z,2.30
2023-01-25T20:06:13.572Z,2.30
2023-01-25T20:08:47.638Z,2.20
2023-01-25T20:11:22.048Z,2.20
2023-01-25T20:13:55.200Z,2.20
2023-01-25T20:16:27.465Z,2.20
2023-01-25T20:18:59.588Z,2.00
2023-01-25T20:21:35.448Z,2.00
2023-01-25T20:24:10.659Z,2.00
2023-01-25T20:26:44.145Z,2.00
2023-01-25T20:29:15.725Z,2.00
2023-01-25T20:31:49.145Z,2.00
2023-01-25T20:34:22.425Z,2.10
2023-01-25T20:36:55.731Z,2.10
2023-01-25T20:39:26.359Z,2.20
2023-01-25T20:41:58.600Z,2.30
2023-01-25T20:44:30.076Z,2.20
2023-01-25T20:47:00.628Z,2.20
2023-01-25T20:49:32.121Z,2.30
2023-01-25T20:52:05.587Z,2.30
2023-01-25T20:54:36.127Z,2.40
2023-01-25T20:57:06.583Z,2.40
2023-01-25T20:59:37.126Z,2.40
2023-01-25T21:02:07.441Z,2.30
2023-01-25T21:04:37.786Z,2.20
2023-01-25T21:07:13.375Z,2.20
2023-01-25T21:09:43.583Z,2.00
2023-01-25T21:12:14.777Z,2.00
2023-01-25T21:14:45.003Z,2.00
2023-01-25T21:17:15.752Z,2.00
2023-01-25T21:19:46.036Z,2.00
2023-01-25T21:22:19.644Z,1.90
2023-01-25T21:24:49.728Z,1.80
2023-01-25T21:27:20.013Z,1.70
2023-01-25T21:29:50.099Z,1.70
2023-01-25T21:32:20.834Z,1.70
2023-01-25T21:34:51.206Z,1.70
2023-01-25T21:37:24.315Z,1.80
2023-01-25T21:39:54.551Z,1.80
2023-01-25T21:42:24.587Z,1.70
2023-01-25T21:45:07.153Z,1.80
2023-01-25T21:47:37.466Z,1.90
2023-01-25T21:50:20.925Z,2.00
2023-01-25T21:52:53.755Z,1.90
2023-01-25T21:55:24.462Z,2.00
2023-01-25T21:57:54.729Z,1.80
2023-01-25T22:00:25.280Z,1.90
2023-01-25T22:02:55.373Z,1.90
2023-01-25T22:05:25.814Z,2.00
2023-01-25T22:07:58.626Z,2.00
2023-01-25T22:10:29.295Z,2.00
2023-01-25T22:12:59.621Z,2.20
2023-01-25T22:15:29.903Z,2.10
2023-01-25T22:18:00.307Z,2.20
2023-01-25T22:20:30.742Z,2.20
2023-01-25T22:23:03.667Z,2.30
2023-01-25T22:25:34.022Z,2.30
2023-01-25T22:28:07.700Z,2.30
2023-01-25T22:30:38.140Z,2.40
2023-01-25T22:33:08.527Z,2.40
2023-01-25T22:35:38.719Z,2.40
2023-01-25T22:38:11.427Z,2.50
2023-01-25T22:40:41.480Z,2.40
2023-01-25T22:43:11.572Z,2.40
2023-01-25T22:45:42.078Z,2.30
2023-01-25T22:48:12.411Z,2.20
2023-01-25T22:50:42.833Z,2.30
2023-01-25T22:53:15.949Z,2.00
2023-01-25T22:55:46.152Z,1.80
2023-01-25T22:58:16.251Z,1.90
2023-01-25T23:00:46.458Z,1.90
2023-01-25T23:03:16.887Z,1.80
2023-01-25T23:05:47.233Z,1.90
2023-01-25T23:08:20.032Z,2.00
2023-01-25T23:10:50.458Z,2.10
2023-01-25T23:13:20.871Z,2.00
2023-01-25T23:15:51.058Z,2.20
2023-01-25T23:18:36.459Z,2.30
2023-01-25T23:21:07.155Z,2.20
2023-01-25T23:23:43.421Z,2.20
2023-01-25T23:26:14.490Z,2.10
2023-01-25T23:28:50.934Z,2.00
2023-01-25T23:31:22.675Z,1.90
2023-01-25T23:33:55.015Z,2.10
2023-01-25T23:36:27.955Z,2.00
2023-01-25T23:39:02.016Z,2.10
2023-01-25T23:41:33.864Z,2.00
2023-01-25T23:44:04.319Z,2.00
2023-01-25T23:46:34.645Z,2.00
2023-01-25T23:49:04.710Z,2.10
2023-01-25T23:51:34.887Z,2.00
2023-01-25T23:54:07.918Z,2.00
2023-01-25T23:56:38.089Z,2.10
2023-01-25T23:59:08.528Z,2.20
